sensor_id;sensor_type;location;lat;lon;timestamp;P1;durP1;ratioP1;P2;durP2;ratioP2
37931;SDS011;23758;42.640;23.302;2023-07-20T00:01:22;2.17;;;2.08;;
37931;SDS011;23758;42.640;23.302;2023-07-20T00:03:47;1.90;;;1.80;;
37931;SDS011;23758;42.640;23.302;2023-07-20T00:06:23;1.90;;;1.80;;
37931;SDS011;23758;42.640;23.302;2023-07-20T00:08:50;2.35;;;2.20;;
37931;SDS011;23758;42.640;23.302;2023-07-20T00:11:16;1.98;;;1.88;;
37931;SDS011;23758;42.640;23.302;2023-07-20T00:13:41;1.90;;;1.80;;
37931;SDS011;23758;42.640;23.302;2023-07-20T00:16:07;2.17;;;2.05;;
37931;SDS011;23758;42.640;23.302;2023-07-20T00:18:32;1.75;;;1.65;;
37931;SDS011;23758;42.640;23.302;2023-07-20T00:20:58;2.33;;;2.17;;
37931;SDS011;23758;42.640;23.302;2023-07-20T00:23:25;1.80;;;1.70;;
37931;SDS011;23758;42.640;23.302;2023-07-20T00:25:51;1.90;;;1.80;;
37931;SDS011;23758;42.640;23.302;2023-07-20T00:28:16;2.22;;;2.10;;
37931;SDS011;23758;42.640;23.302;2023-07-20T00:30:42;1.92;;;1.83;;
37931;SDS011;23758;42.640;23.302;2023-07-20T00:33:10;1.90;;;1.80;;
37931;SDS011;23758;42.640;23.302;2023-07-20T00:35:36;3.50;;;2.22;;
37931;SDS011;23758;42.640;23.302;2023-07-20T00:38:03;2.10;;;2.00;;
37931;SDS011;23758;42.640;23.302;2023-07-20T00:40:28;1.90;;;1.80;;
37931;SDS011;23758;42.640;23.302;2023-07-20T00:43:00;1.90;;;1.80;;
37931;SDS011;23758;42.640;23.302;2023-07-20T00:45:25;2.03;;;1.85;;
37931;SDS011;23758;42.640;23.302;2023-07-20T00:47:51;1.80;;;1.70;;
37931;SDS011;23758;42.640;23.302;2023-07-20T00:50:16;2.10;;;2.00;;
37931;SDS011;23758;42.640;23.302;2023-07-20T00:52:42;2.00;;;1.90;;
37931;SDS011;23758;42.640;23.302;2023-07-20T00:55:07;1.80;;;1.70;;
37931;SDS011;23758;42.640;23.302;2023-07-20T00:57:34;2.38;;;2.05;;
37931;SDS011;23758;42.640;23.302;2023-07-20T00:59:59;2.13;;;2.00;;
37931;SDS011;23758;42.640;23.302;2023-07-20T01:02:25;2.60;;;2.10;;
37931;SDS011;23758;42.640;23.302;2023-07-20T01:04:51;2.03;;;1.92;;
37931;SDS011;23758;42.640;23.302;2023-07-20T01:07:28;2.60;;;2.40;;
37931;SDS011;23758;42.640;23.302;2023-07-20T01:13:01;2.42;;;2.22;;
37931;SDS011;23758;42.640;23.302;2023-07-20T01:15:27;2.33;;;2.22;;
37931;SDS011;23758;42.640;23.302;2023-07-20T01:17:53;2.00;;;1.90;;
37931;SDS011;23758;42.640;23.302;2023-07-20T01:20:19;2.15;;;2.05;;
37931;SDS011;23758;42.640;23.302;2023-07-20T01:33:56;2.05;;;1.95;;
37931;SDS011;23758;42.640;23.302;2023-07-20T01:36:23;2.38;;;2.15;;
37931;SDS011;23758;42.640;23.302;2023-07-20T01:38:50;1.80;;;1.70;;
37931;SDS011;23758;42.640;23.302;2023-07-20T01:41:16;2.22;;;2.13;;
37931;SDS011;23758;42.640;23.302;2023-07-20T01:43:43;1.98;;;1.88;;
37931;SDS011;23758;42.640;23.302;2023-07-20T01:46:08;2.00;;;1.90;;
37931;SDS011;23758;42.640;23.302;2023-07-20T01:48:34;2.20;;;2.10;;
37931;SDS011;23758;42.640;23.302;2023-07-20T01:50:59;1.98;;;1.88;;
37931;SDS011;23758;42.640;23.302;2023-07-20T01:53:25;2.75;;;2.55;;
37931;SDS011;23758;42.640;23.302;2023-07-20T01:55:52;2.67;;;2.38;;
37931;SDS011;23758;42.640;23.302;2023-07-20T01:58:19;2.10;;;2.00;;
37931;SDS011;23758;42.640;23.302;2023-07-20T02:00:44;2.20;;;2.10;;
37931;SDS011;23758;42.640;23.302;2023-07-20T02:03:10;3.80;;;2.60;;
37931;SDS011;23758;42.640;23.302;2023-07-20T02:05:37;2.85;;;2.60;;
37931;SDS011;23758;42.640;23.302;2023-07-20T02:08:02;2.78;;;2.53;;
37931;SDS011;23758;42.640;23.302;2023-07-20T02:10:28;2.63;;;2.42;;
37931;SDS011;23758;42.640;23.302;2023-07-20T02:12:53;2.15;;;2.05;;
37931;SDS011;23758;42.640;23.302;2023-07-20T02:15:19;2.85;;;2.13;;
37931;SDS011;23758;42.640;23.302;2023-07-20T02:17:45;2.20;;;2.10;;
37931;SDS011;23758;42.640;23.302;2023-07-20T02:20:10;2.28;;;2.17;;
37931;SDS011;23758;42.640;23.302;2023-07-20T02:22:36;2.10;;;2.00;;
37931;SDS011;23758;42.640;23.302;2023-07-20T02:25:05;2.28;;;2.17;;
37931;SDS011;23758;42.640;23.302;2023-07-20T02:27:32;2.35;;;2.20;;
37931;SDS011;23758;42.640;23.302;2023-07-20T02:30:01;2.00;;;1.90;;
37931;SDS011;23758;42.640;23.302;2023-07-20T02:32:27;2.00;;;1.90;;
37931;SDS011;23758;42.640;23.302;2023-07-20T02:34:53;2.45;;;2.28;;
37931;SDS011;23758;42.640;23.302;2023-07-20T02:37:18;2.10;;;2.00;;
37931;SDS011;23758;42.640;23.302;2023-07-20T02:39:44;2.20;;;2.10;;
37931;SDS011;23758;42.640;23.302;2023-07-20T02:42:09;2.42;;;2.22;;
37931;SDS011;23758;42.640;23.302;2023-07-20T02:44:35;2.83;;;2.50;;
37931;SDS011;23758;42.640;23.302;2023-07-20T02:47:00;2.25;;;2.15;;
37931;SDS011;23758;42.640;23.302;2023-07-20T02:49:26;4.50;;;3.03;;
37931;SDS011;23758;42.640;23.302;2023-07-20T02:51:52;2.58;;;2.38;;
37931;SDS011;23758;42.640;23.302;2023-07-20T02:54:17;4.80;;;2.58;;
37931;SDS011;23758;42.640;23.302;2023-07-20T02:56:43;2.58;;;2.38;;
37931;SDS011;23758;42.640;23.302;2023-07-20T02:59:08;2.00;;;1.90;;
37931;SDS011;23758;42.640;23.302;2023-07-20T03:01:35;2.25;;;2.08;;
37931;SDS011;23758;42.640;23.302;2023-07-20T03:04:00;2.08;;;1.98;;
37931;SDS011;23758;42.640;23.302;2023-07-20T03:06:26;2.28;;;2.17;;
37931;SDS011;23758;42.640;23.302;2023-07-20T03:08:52;2.20;;;2.10;;
37931;SDS011;23758;42.640;23.302;2023-07-20T03:11:18;2.20;;;2.10;;
37931;SDS011;23758;42.640;23.302;2023-07-20T03:13:45;2.60;;;2.40;;
37931;SDS011;23758;42.640;23.302;2023-07-20T03:16:11;2.83;;;2.63;;
37931;SDS011;23758;42.640;23.302;2023-07-20T03:18:40;2.13;;;2.03;;
37931;SDS011;23758;42.640;23.302;2023-07-20T03:21:06;2.10;;;2.00;;
37931;SDS011;23758;42.640;23.302;2023-07-20T03:23:33;2.00;;;1.90;;
37931;SDS011;23758;42.640;23.302;2023-07-20T03:25:58;2.60;;;2.40;;
37931;SDS011;23758;42.640;23.302;2023-07-20T03:28:24;2.65;;;2.45;;
37931;SDS011;23758;42.640;23.302;2023-07-20T03:30:54;2.00;;;1.90;;
37931;SDS011;23758;42.640;23.302;2023-07-20T03:33:24;2.10;;;2.00;;
37931;SDS011;23758;42.640;23.302;2023-07-20T03:35:50;1.95;;;1.85;;
37931;SDS011;23758;42.640;23.302;2023-07-20T03:38:16;2.35;;;2.00;;
37931;SDS011;23758;42.640;23.302;2023-07-20T03:40:51;2.00;;;1.90;;
37931;SDS011;23758;42.640;23.302;2023-07-20T03:43:17;2.47;;;2.28;;
37931;SDS011;23758;42.640;23.302;2023-07-20T03:45:43;3.15;;;2.60;;
37931;SDS011;23758;42.640;23.302;2023-07-20T03:48:08;2.05;;;1.95;;
37931;SDS011;23758;42.640;23.302;2023-07-20T03:50:34;2.40;;;2.20;;
37931;SDS011;23758;42.640;23.302;2023-07-20T03:53:00;2.65;;;2.45;;
37931;SDS011;23758;42.640;23.302;2023-07-20T03:55:25;2.28;;;2.00;;
37931;SDS011;23758;42.640;23.302;2023-07-20T03:57:50;2.58;;;2.38;;
37931;SDS011;23758;42.640;23.302;2023-07-20T04:00:16;2.55;;;2.35;;
37931;SDS011;23758;42.640;23.302;2023-07-20T04:02:42;1.90;;;1.80;;
37931;SDS011;23758;42.640;23.302;2023-07-20T04:05:08;1.80;;;1.70;;
37931;SDS011;23758;42.640;23.302;2023-07-20T04:07:34;2.10;;;2.00;;
37931;SDS011;23758;42.640;23.302;2023-07-20T04:09:59;2.50;;;2.33;;
37931;SDS011;23758;42.640;23.302;2023-07-20T04:12:24;3.25;;;2.30;;
37931;SDS011;23758;42.640;23.302;2023-07-20T04:14:50;1.85;;;1.75;;
37931;SDS011;23758;42.640;23.302;2023-07-20T04:17:15;1.88;;;1.77;;
37931;SDS011;23758;42.640;23.302;2023-07-20T04:19:41;2.05;;;1.95;;
37931;SDS011;23758;42.640;23.302;2023-07-20T04:22:06;1.85;;;1.75;;
37931;SDS011;23758;42.640;23.302;2023-07-20T04:24:32;2.17;;;2.08;;
37931;SDS011;23758;42.640;23.302;2023-07-20T04:26:57;2.10;;;2.00;;
37931;SDS011;23758;42.640;23.302;2023-07-20T04:29:23;2.70;;;2.50;;
37931;SDS011;23758;42.640;23.302;2023-07-20T04:31:48;2.08;;;1.98;;
37931;SDS011;23758;42.640;23.302;2023-07-20T04:34:13;2.00;;;1.90;;
37931;SDS011;23758;42.640;23.302;2023-07-20T04:36:39;6.82;;;1.95;;
37931;SDS011;23758;42.640;23.302;2023-07-20T04:39:04;2.05;;;1.95;;
37931;SDS011;23758;42.640;23.302;2023-07-20T04:41:30;2.45;;;2.30;;
37931;SDS011;23758;42.640;23.302;2023-07-20T04:43:56;2.40;;;1.83;;
37931;SDS011;23758;42.640;23.302;2023-07-20T04:46:21;11.50;;;1.92;;
37931;SDS011;23758;42.640;23.302;2023-07-20T04:48:47;1.50;;;1.40;;
37931;SDS011;23758;42.640;23.302;2023-07-20T04:51:13;1.73;;;1.63;;
37931;SDS011;23758;42.640;23.302;2023-07-20T04:53:38;1.60;;;1.50;;
37931;SDS011;23758;42.640;23.302;2023-07-20T04:56:04;1.67;;;1.58;;
37931;SDS011;23758;42.640;23.302;2023-07-20T04:58:29;1.50;;;1.40;;
37931;SDS011;23758;42.640;23.302;2023-07-20T05:00:54;2.45;;;1.85;;
37931;SDS011;23758;42.640;23.302;2023-07-20T05:03:20;1.38;;;1.30;;
37931;SDS011;23758;42.640;23.302;2023-07-20T05:05:46;1.55;;;1.45;;
37931;SDS011;23758;42.640;23.302;2023-07-20T05:08:13;1.75;;;1.65;;
37931;SDS011;23758;42.640;23.302;2023-07-20T05:10:38;1.88;;;1.27;;
37931;SDS011;23758;42.640;23.302;2023-07-20T05:13:04;1.58;;;1.48;;
37931;SDS011;23758;42.640;23.302;2023-07-20T05:15:30;7.15;;;1.40;;
37931;SDS011;23758;42.640;23.302;2023-07-20T05:17:58;1.58;;;1.48;;
37931;SDS011;23758;42.640;23.302;2023-07-20T05:20:23;0.90;;;0.90;;
37931;SDS011;23758;42.640;23.302;2023-07-20T05:22:49;2.38;;;1.55;;
37931;SDS011;23758;42.640;23.302;2023-07-20T05:25:14;1.58;;;1.42;;
37931;SDS011;23758;42.640;23.302;2023-07-20T05:27:43;2.15;;;1.52;;
37931;SDS011;23758;42.640;23.302;2023-07-20T05:30:09;1.00;;;1.00;;
37931;SDS011;23758;42.640;23.302;2023-07-20T05:32:35;2.35;;;1.10;;
37931;SDS011;23758;42.640;23.302;2023-07-20T05:35:01;0.93;;;0.90;;
37931;SDS011;23758;42.640;23.302;2023-07-20T05:37:26;1.00;;;1.00;;
37931;SDS011;23758;42.640;23.302;2023-07-20T05:39:52;0.90;;;0.90;;
37931;SDS011;23758;42.640;23.302;2023-07-20T05:42:17;1.58;;;1.25;;
37931;SDS011;23758;42.640;23.302;2023-07-20T05:44:43;1.25;;;1.15;;
37931;SDS011;23758;42.640;23.302;2023-07-20T05:47:08;4.40;;;1.25;;
37931;SDS011;23758;42.640;23.302;2023-07-20T05:49:34;1.17;;;1.08;;
37931;SDS011;23758;42.640;23.302;2023-07-20T05:52:00;5.72;;;1.42;;
37931;SDS011;23758;42.640;23.302;2023-07-20T05:54:26;1.55;;;1.45;;
37931;SDS011;23758;42.640;23.302;2023-07-20T05:56:52;0.88;;;0.88;;
37931;SDS011;23758;42.640;23.302;2023-07-20T05:59:18;2.15;;;1.30;;
37931;SDS011;23758;42.640;23.302;2023-07-20T06:01:45;1.45;;;1.35;;
37931;SDS011;23758;42.640;23.302;2023-07-20T06:04:12;2.83;;;1.73;;
37931;SDS011;23758;42.640;23.302;2023-07-20T06:06:37;1.85;;;1.75;;
37931;SDS011;23758;42.640;23.302;2023-07-20T06:09:03;1.50;;;1.40;;
37931;SDS011;23758;42.640;23.302;2023-07-20T06:11:29;1.60;;;1.50;;
37931;SDS011;23758;42.640;23.302;2023-07-20T06:13:56;1.40;;;1.30;;
37931;SDS011;23758;42.640;23.302;2023-07-20T06:16:21;3.28;;;2.17;;
37931;SDS011;23758;42.640;23.302;2023-07-20T06:18:47;1.77;;;1.67;;
37931;SDS011;23758;42.640;23.302;2023-07-20T06:21:13;1.52;;;1.42;;
37931;SDS011;23758;42.640;23.302;2023-07-20T06:23:38;2.20;;;1.98;;
37931;SDS011;23758;42.640;23.302;2023-07-20T06:26:05;1.98;;;1.85;;
37931;SDS011;23758;42.640;23.302;2023-07-20T06:28:31;2.08;;;1.98;;
37931;SDS011;23758;42.640;23.302;2023-07-20T06:31:00;2.20;;;1.90;;
37931;SDS011;23758;42.640;23.302;2023-07-20T06:33:26;1.90;;;1.80;;
37931;SDS011;23758;42.640;23.302;2023-07-20T06:35:52;2.30;;;2.10;;
37931;SDS011;23758;42.640;23.302;2023-07-20T06:38:18;1.70;;;1.60;;
37931;SDS011;23758;42.640;23.302;2023-07-20T06:40:45;1.70;;;1.60;;
37931;SDS011;23758;42.640;23.302;2023-07-20T06:43:11;2.83;;;2.47;;
37931;SDS011;23758;42.640;23.302;2023-07-20T06:45:37;3.97;;;2.20;;
37931;SDS011;23758;42.640;23.302;2023-07-20T06:48:02;2.13;;;2.00;;
37931;SDS011;23758;42.640;23.302;2023-07-20T06:50:28;2.70;;;2.33;;
37931;SDS011;23758;42.640;23.302;2023-07-20T06:52:54;2.00;;;1.90;;
37931;SDS011;23758;42.640;23.302;2023-07-20T06:55:19;3.50;;;2.15;;
37931;SDS011;23758;42.640;23.302;2023-07-20T06:57:45;1.90;;;1.80;;
37931;SDS011;23758;42.640;23.302;2023-07-20T07:00:10;4.72;;;2.03;;
37931;SDS011;23758;42.640;23.302;2023-07-20T07:02:36;1.50;;;1.40;;
37931;SDS011;23758;42.640;23.302;2023-07-20T07:05:02;1.67;;;1.58;;
37931;SDS011;23758;42.640;23.302;2023-07-20T07:07:27;1.40;;;1.30;;
37931;SDS011;23758;42.640;23.302;2023-07-20T07:09:53;1.40;;;1.30;;
37931;SDS011;23758;42.640;23.302;2023-07-20T07:12:18;1.50;;;1.40;;
37931;SDS011;23758;42.640;23.302;2023-07-20T07:14:44;1.63;;;1.52;;
37931;SDS011;23758;42.640;23.302;2023-07-20T07:17:09;1.50;;;1.40;;
37931;SDS011;23758;42.640;23.302;2023-07-20T07:19:34;1.15;;;1.15;;
37931;SDS011;23758;42.640;23.302;2023-07-20T07:22:01;5.50;;;1.95;;
37931;SDS011;23758;42.640;23.302;2023-07-20T07:24:26;1.95;;;1.85;;
37931;SDS011;23758;42.640;23.302;2023-07-20T07:26:58;1.60;;;1.50;;
37931;SDS011;23758;42.640;23.302;2023-07-20T07:29:24;7.72;;;1.95;;
37931;SDS011;23758;42.640;23.302;2023-07-20T07:31:50;1.52;;;1.42;;
37931;SDS011;23758;42.640;23.302;2023-07-20T07:34:16;1.65;;;1.55;;
37931;SDS011;23758;42.640;23.302;2023-07-20T07:36:42;5.40;;;2.13;;
37931;SDS011;23758;42.640;23.302;2023-07-20T07:39:08;2.15;;;1.95;;
37931;SDS011;23758;42.640;23.302;2023-07-20T07:41:34;1.50;;;1.40;;
37931;SDS011;23758;42.640;23.302;2023-07-20T07:44:00;2.30;;;1.98;;
37931;SDS011;23758;42.640;23.302;2023-07-20T07:46:25;1.80;;;1.70;;
37931;SDS011;23758;42.640;23.302;2023-07-20T07:48:51;1.80;;;1.70;;
37931;SDS011;23758;42.640;23.302;2023-07-20T07:51:16;2.28;;;1.80;;
37931;SDS011;23758;42.640;23.302;2023-07-20T07:53:42;1.83;;;1.73;;
37931;SDS011;23758;42.640;23.302;2023-07-20T07:56:08;1.75;;;1.65;;
37931;SDS011;23758;42.640;23.302;2023-07-20T07:58:34;2.47;;;2.28;;
37931;SDS011;23758;42.640;23.302;2023-07-20T08:00:59;1.77;;;1.67;;
37931;SDS011;23758;42.640;23.302;2023-07-20T08:03:25;2.35;;;2.15;;
37931;SDS011;23758;42.640;23.302;2023-07-20T08:05:51;1.65;;;1.55;;
37931;SDS011;23758;42.640;23.302;2023-07-20T08:08:20;1.73;;;1.63;;
37931;SDS011;23758;42.640;23.302;2023-07-20T08:10:45;1.90;;;1.80;;
37931;SDS011;23758;42.640;23.302;2023-07-20T08:13:12;1.75;;;1.65;;
37931;SDS011;23758;42.640;23.302;2023-07-20T08:15:37;1.38;;;1.27;;
37931;SDS011;23758;42.640;23.302;2023-07-20T08:18:03;1.55;;;1.45;;
37931;SDS011;23758;42.640;23.302;2023-07-20T08:20:29;1.13;;;1.10;;
37931;SDS011;23758;42.640;23.302;2023-07-20T08:22:54;1.17;;;1.08;;
37931;SDS011;23758;42.640;23.302;2023-07-20T08:25:20;1.25;;;1.17;;
37931;SDS011;23758;42.640;23.302;2023-07-20T08:27:46;0.80;;;0.80;;
37931;SDS011;23758;42.640;23.302;2023-07-20T08:30:12;2.38;;;1.33;;
37931;SDS011;23758;42.640;23.302;2023-07-20T08:32:38;1.08;;;1.00;;
37931;SDS011;23758;42.640;23.302;2023-07-20T08:35:04;1.30;;;1.20;;
37931;SDS011;23758;42.640;23.302;2023-07-20T08:37:30;2.00;;;0.98;;
37931;SDS011;23758;42.640;23.302;2023-07-20T08:39:56;1.45;;;1.05;;
37931;SDS011;23758;42.640;23.302;2023-07-20T08:42:21;2.10;;;1.70;;
37931;SDS011;23758;42.640;23.302;2023-07-20T08:44:48;2.15;;;1.58;;
37931;SDS011;23758;42.640;23.302;2023-07-20T08:47:13;0.98;;;0.98;;
37931;SDS011;23758;42.640;23.302;2023-07-20T08:49:41;1.30;;;1.20;;
37931;SDS011;23758;42.640;23.302;2023-07-20T08:52:06;1.02;;;1.02;;
37931;SDS011;23758;42.640;23.302;2023-07-20T08:54:33;4.93;;;1.65;;
37931;SDS011;23758;42.640;23.302;2023-07-20T08:57:03;1.25;;;1.17;;
37931;SDS011;23758;42.640;23.302;2023-07-20T08:59:30;3.42;;;2.65;;
37931;SDS011;23758;42.640;23.302;2023-07-20T09:01:57;2.75;;;2.13;;
37931;SDS011;23758;42.640;23.302;2023-07-20T09:04:23;1.00;;;1.00;;
37931;SDS011;23758;42.640;23.302;2023-07-20T09:06:49;1.20;;;1.10;;
37931;SDS011;23758;42.640;23.302;2023-07-20T09:09:15;1.30;;;1.20;;
37931;SDS011;23758;42.640;23.302;2023-07-20T09:11:40;2.65;;;1.30;;
37931;SDS011;23758;42.640;23.302;2023-07-20T09:14:07;1.00;;;1.00;;
37931;SDS011;23758;42.640;23.302;2023-07-20T09:16:47;1.10;;;1.05;;
37931;SDS011;23758;42.640;23.302;2023-07-20T09:19:19;2.13;;;1.85;;
37931;SDS011;23758;42.640;23.302;2023-07-20T09:21:46;4.20;;;2.40;;
37931;SDS011;23758;42.640;23.302;2023-07-20T09:24:15;1.02;;;1.02;;
37931;SDS011;23758;42.640;23.302;2023-07-20T09:26:46;0.80;;;0.80;;
37931;SDS011;23758;42.640;23.302;2023-07-20T09:29:19;2.17;;;1.52;;
37931;SDS011;23758;42.640;23.302;2023-07-20T09:32:06;2.42;;;1.58;;
37931;SDS011;23758;42.640;23.302;2023-07-20T09:34:33;0.90;;;0.90;;
37931;SDS011;23758;42.640;23.302;2023-07-20T09:36:59;1.25;;;1.15;;
37931;SDS011;23758;42.640;23.302;2023-07-20T09:39:25;0.80;;;0.80;;
37931;SDS011;23758;42.640;23.302;2023-07-20T09:41:51;2.05;;;1.48;;
37931;SDS011;23758;42.640;23.302;2023-07-20T09:44:17;0.93;;;0.93;;
37931;SDS011;23758;42.640;23.302;2023-07-20T09:46:47;1.10;;;1.10;;
37931;SDS011;23758;42.640;23.302;2023-07-20T09:49:13;1.95;;;1.02;;
37931;SDS011;23758;42.640;23.302;2023-07-20T09:51:39;1.15;;;0.93;;
37931;SDS011;23758;42.640;23.302;2023-07-20T09:54:05;1.00;;;0.95;;
37931;SDS011;23758;42.640;23.302;2023-07-20T09:56:31;1.17;;;1.08;;
37931;SDS011;23758;42.640;23.302;2023-07-20T09:58:58;0.88;;;0.88;;
37931;SDS011;23758;42.640;23.302;2023-07-20T10:01:24;0.90;;;0.90;;
37931;SDS011;23758;42.640;23.302;2023-07-20T10:03:51;1.02;;;0.98;;
37931;SDS011;23758;42.640;23.302;2023-07-20T10:06:20;0.95;;;0.95;;
37931;SDS011;23758;42.640;23.302;2023-07-20T10:08:49;1.10;;;1.10;;
37931;SDS011;23758;42.640;23.302;2023-07-20T10:11:18;1.08;;;1.08;;
37931;SDS011;23758;42.640;23.302;2023-07-20T10:13:44;2.88;;;1.42;;
37931;SDS011;23758;42.640;23.302;2023-07-20T10:16:10;1.10;;;1.10;;
37931;SDS011;23758;42.640;23.302;2023-07-20T10:21:11;1.10;;;1.10;;
37931;SDS011;23758;42.640;23.302;2023-07-20T10:23:37;1.10;;;1.10;;
37931;SDS011;23758;42.640;23.302;2023-07-20T10:26:03;3.53;;;1.42;;
37931;SDS011;23758;42.640;23.302;2023-07-20T10:28:29;4.53;;;1.40;;
37931;SDS011;23758;42.640;23.302;2023-07-20T10:30:54;1.20;;;1.10;;
37931;SDS011;23758;42.640;23.302;2023-07-20T10:33:20;1.42;;;1.33;;
37931;SDS011;23758;42.640;23.302;2023-07-20T10:43:43;0.90;;;0.90;;
37931;SDS011;23758;42.640;23.302;2023-07-20T10:46:10;0.90;;;0.90;;
37931;SDS011;23758;42.640;23.302;2023-07-20T10:48:58;1.30;;;1.23;;
37931;SDS011;23758;42.640;23.302;2023-07-20T10:51:29;1.00;;;1.00;;
37931;SDS011;23758;42.640;23.302;2023-07-20T10:53:57;1.13;;;1.10;;
37931;SDS011;23758;42.640;23.302;2023-07-20T10:56:26;1.05;;;1.00;;
37931;SDS011;23758;42.640;23.302;2023-07-20T10:58:57;0.90;;;0.90;;
37931;SDS011;23758;42.640;23.302;2023-07-20T11:01:27;1.02;;;1.02;;
37931;SDS011;23758;42.640;23.302;2023-07-20T11:03:58;1.30;;;1.20;;
37931;SDS011;23758;42.640;23.302;2023-07-20T11:08:57;1.20;;;1.10;;
37931;SDS011;23758;42.640;23.302;2023-07-20T11:11:33;1.23;;;1.15;;
37931;SDS011;23758;42.640;23.302;2023-07-20T11:14:00;1.35;;;1.25;;
37931;SDS011;23758;42.640;23.302;2023-07-20T11:16:41;1.30;;;1.20;;
37931;SDS011;23758;42.640;23.302;2023-07-20T11:21:44;1.02;;;1.02;;
37931;SDS011;23758;42.640;23.302;2023-07-20T11:24:12;1.70;;;1.23;;
37931;SDS011;23758;42.640;23.302;2023-07-20T11:29:15;0.88;;;0.88;;
37931;SDS011;23758;42.640;23.302;2023-07-20T11:31:41;1.52;;;1.42;;
37931;SDS011;23758;42.640;23.302;2023-07-20T11:34:10;1.02;;;0.93;;
37931;SDS011;23758;42.640;23.302;2023-07-20T11:36:40;0.90;;;0.90;;
37931;SDS011;23758;42.640;23.302;2023-07-20T11:39:07;1.08;;;1.05;;
37931;SDS011;23758;42.640;23.302;2023-07-20T11:41:37;1.80;;;1.20;;
37931;SDS011;23758;42.640;23.302;2023-07-20T11:44:03;1.00;;;1.00;;
37931;SDS011;23758;42.640;23.302;2023-07-20T11:46:31;2.33;;;1.20;;
37931;SDS011;23758;42.640;23.302;2023-07-20T11:48:59;1.20;;;1.10;;
37931;SDS011;23758;42.640;23.302;2023-07-20T11:51:26;4.18;;;1.70;;
37931;SDS011;23758;42.640;23.302;2023-07-20T11:53:52;1.17;;;1.15;;
37931;SDS011;23758;42.640;23.302;2023-07-20T11:56:18;1.35;;;1.20;;
37931;SDS011;23758;42.640;23.302;2023-07-20T11:58:44;1.23;;;1.15;;
37931;SDS011;23758;42.640;23.302;2023-07-20T12:01:11;0.90;;;0.90;;
37931;SDS011;23758;42.640;23.302;2023-07-20T12:03:41;1.02;;;1.02;;
37931;SDS011;23758;42.640;23.302;2023-07-20T12:06:07;1.30;;;1.20;;
37931;SDS011;23758;42.640;23.302;2023-07-20T12:08:33;0.95;;;0.95;;
37931;SDS011;23758;42.640;23.302;2023-07-20T12:10:59;1.30;;;1.00;;
37931;SDS011;23758;42.640;23.302;2023-07-20T12:13:35;1.15;;;1.05;;
37931;SDS011;23758;42.640;23.302;2023-07-20T12:16:13;0.75;;;0.75;;
37931;SDS011;23758;42.640;23.302;2023-07-20T12:18:40;1.27;;;1.17;;
37931;SDS011;23758;42.640;23.302;2023-07-20T12:21:09;1.13;;;0.90;;
37931;SDS011;23758;42.640;23.302;2023-07-20T12:23:35;0.82;;;0.82;;
37931;SDS011;23758;42.640;23.302;2023-07-20T12:26:08;0.80;;;0.80;;
37931;SDS011;23758;42.640;23.302;2023-07-20T12:28:43;0.73;;;0.73;;
37931;SDS011;23758;42.640;23.302;2023-07-20T12:31:09;0.80;;;0.80;;
37931;SDS011;23758;42.640;23.302;2023-07-20T12:33:36;1.13;;;1.08;;
37931;SDS011;23758;42.640;23.302;2023-07-20T12:36:02;1.45;;;1.25;;
37931;SDS011;23758;42.640;23.302;2023-07-20T12:38:27;0.80;;;0.80;;
37931;SDS011;23758;42.640;23.302;2023-07-20T12:40:53;0.88;;;0.80;;
37931;SDS011;23758;42.640;23.302;2023-07-20T12:43:22;1.08;;;1.05;;
37931;SDS011;23758;42.640;23.302;2023-07-20T12:45:47;1.02;;;1.02;;
37931;SDS011;23758;42.640;23.302;2023-07-20T12:48:13;1.42;;;1.30;;
37931;SDS011;23758;42.640;23.302;2023-07-20T12:50:38;2.20;;;1.48;;
37931;SDS011;23758;42.640;23.302;2023-07-20T12:53:04;1.08;;;0.98;;
37931;SDS011;23758;42.640;23.302;2023-07-20T12:55:29;0.90;;;0.90;;
37931;SDS011;23758;42.640;23.302;2023-07-20T12:57:55;0.80;;;0.80;;
37931;SDS011;23758;42.640;23.302;2023-07-20T13:00:20;1.95;;;1.42;;
37931;SDS011;23758;42.640;23.302;2023-07-20T13:02:50;0.90;;;0.90;;
37931;SDS011;23758;42.640;23.302;2023-07-20T13:05:15;1.25;;;1.15;;
37931;SDS011;23758;42.640;23.302;2023-07-20T13:07:41;1.20;;;1.10;;
37931;SDS011;23758;42.640;23.302;2023-07-20T13:10:07;5.00;;;1.48;;
37931;SDS011;23758;42.640;23.302;2023-07-20T13:12:34;3.63;;;1.35;;
37931;SDS011;23758;42.640;23.302;2023-07-20T13:15:03;1.15;;;1.10;;
37931;SDS011;23758;42.640;23.302;2023-07-20T13:17:36;1.50;;;1.40;;
37931;SDS011;23758;42.640;23.302;2023-07-20T13:20:02;1.38;;;1.27;;
37931;SDS011;23758;42.640;23.302;2023-07-20T13:22:31;1.25;;;1.17;;
37931;SDS011;23758;42.640;23.302;2023-07-20T13:24:57;1.05;;;1.05;;
37931;SDS011;23758;42.640;23.302;2023-07-20T13:27:23;1.42;;;1.33;;
37931;SDS011;23758;42.640;23.302;2023-07-20T13:29:50;1.50;;;1.40;;
37931;SDS011;23758;42.640;23.302;2023-07-20T13:32:16;1.52;;;1.40;;
37931;SDS011;23758;42.640;23.302;2023-07-20T13:34:43;1.13;;;1.08;;
37931;SDS011;23758;42.640;23.302;2023-07-20T13:37:09;2.10;;;1.65;;
37931;SDS011;23758;42.640;23.302;2023-07-20T13:39:35;1.10;;;1.10;;
37931;SDS011;23758;42.640;23.302;2023-07-20T13:42:01;1.20;;;1.10;;
37931;SDS011;23758;42.640;23.302;2023-07-20T13:44:29;2.55;;;1.58;;
37931;SDS011;23758;42.640;23.302;2023-07-20T13:46:54;1.40;;;1.30;;
37931;SDS011;23758;42.640;23.302;2023-07-20T13:49:20;1.88;;;1.30;;
37931;SDS011;23758;42.640;23.302;2023-07-20T13:51:45;1.60;;;1.50;;
37931;SDS011;23758;42.640;23.302;2023-07-20T13:54:11;1.42;;;1.33;;
37931;SDS011;23758;42.640;23.302;2023-07-20T13:56:37;1.55;;;1.42;;
37931;SDS011;23758;42.640;23.302;2023-07-20T13:59:02;1.83;;;1.65;;
37931;SDS011;23758;42.640;23.302;2023-07-20T14:01:28;29.83;;;2.25;;
37931;SDS011;23758;42.640;23.302;2023-07-20T14:03:54;5.65;;;1.23;;
37931;SDS011;23758;42.640;23.302;2023-07-20T14:06:20;1.25;;;1.20;;
37931;SDS011;23758;42.640;23.302;2023-07-20T14:08:45;1.10;;;1.10;;
37931;SDS011;23758;42.640;23.302;2023-07-20T14:11:15;1.33;;;1.23;;
37931;SDS011;23758;42.640;23.302;2023-07-20T14:13:40;1.20;;;1.20;;
37931;SDS011;23758;42.640;23.302;2023-07-20T14:16:06;1.10;;;1.10;;
37931;SDS011;23758;42.640;23.302;2023-07-20T14:18:32;3.55;;;1.40;;
37931;SDS011;23758;42.640;23.302;2023-07-20T14:20:57;2.15;;;1.95;;
37931;SDS011;23758;42.640;23.302;2023-07-20T14:23:23;1.75;;;1.65;;
37931;SDS011;23758;42.640;23.302;2023-07-20T14:25:48;1.25;;;1.20;;
37931;SDS011;23758;42.640;23.302;2023-07-20T14:28:14;1.40;;;1.30;;
37931;SDS011;23758;42.640;23.302;2023-07-20T14:30:39;1.45;;;1.35;;
37931;SDS011;23758;42.640;23.302;2023-07-20T14:33:05;1.23;;;1.17;;
37931;SDS011;23758;42.640;23.302;2023-07-20T14:35:31;1.33;;;1.23;;
37931;SDS011;23758;42.640;23.302;2023-07-20T14:37:57;1.60;;;1.40;;
37931;SDS011;23758;42.640;23.302;2023-07-20T14:40:22;1.50;;;1.40;;
37931;SDS011;23758;42.640;23.302;2023-07-20T14:42:48;1.10;;;1.10;;
37931;SDS011;23758;42.640;23.302;2023-07-20T14:45:13;1.20;;;1.10;;
37931;SDS011;23758;42.640;23.302;2023-07-20T14:47:39;1.75;;;1.65;;
37931;SDS011;23758;42.640;23.302;2023-07-20T14:50:05;1.33;;;1.23;;
37931;SDS011;23758;42.640;23.302;2023-07-20T14:52:31;1.52;;;1.42;;
37931;SDS011;23758;42.640;23.302;2023-07-20T14:54:56;1.40;;;1.30;;
37931;SDS011;23758;42.640;23.302;2023-07-20T14:57:22;1.77;;;1.42;;
37931;SDS011;23758;42.640;23.302;2023-07-20T14:59:51;1.08;;;1.08;;
37931;SDS011;23758;42.640;23.302;2023-07-20T15:02:17;4.20;;;1.42;;